createdAt,value
2019-02-02T00:01:57.716Z,0.40
2019-02-02T00:04:28.899Z,0.30
2019-02-02T00:06:59.013Z,0.30
2019-02-02T00:09:29.543Z,0.30
2019-02-02T00:12:00.581Z,0.40
2019-02-02T00:14:31.206Z,0.30
2019-02-02T00:17:01.657Z,0.30
2019-02-02T00:19:31.200Z,0.50
2019-02-02T00:22:01.507Z,0.40
2019-02-02T00:24:31.889Z,0.40
2019-02-02T00:27:01.901Z,0.40
2019-02-02T00:29:32.086Z,0.40
2019-02-02T00:32:02.245Z,0.50
2019-02-02T00:34:33.690Z,0.60
2019-02-02T00:37:03.997Z,0.60
2019-02-02T00:39:34.049Z,0.40
2019-02-02T00:42:04.962Z,0.40
2019-02-02T00:44:35.397Z,0.40
2019-02-02T00:47:07.172Z,0.30
2019-02-02T00:49:37.053Z,0.40
2019-02-02T00:52:07.379Z,0.40
2019-02-02T00:54:37.430Z,0.30
2019-02-02T00:57:10.505Z,0.40
2019-02-02T00:59:40.917Z,0.40
2019-02-02T01:02:11.003Z,0.30
2019-02-02T01:04:41.613Z,0.30
2019-02-02T01:07:12.813Z,0.30
2019-02-02T01:09:43.026Z,0.30
2019-02-02T01:12:13.057Z,0.30
2019-02-02T01:14:44.245Z,0.50
2019-02-02T01:17:14.840Z,0.40
2019-02-02T01:19:48.332Z,0.50
2019-02-02T01:22:18.568Z,0.40
2019-02-02T01:24:49.649Z,0.40
2019-02-02T01:27:19.990Z,0.40
2019-02-02T01:29:50.468Z,0.40
2019-02-02T01:32:20.627Z,0.40
2019-02-02T01:34:51.241Z,0.40
2019-02-02T01:37:21.811Z,0.40
2019-02-02T01:39:52.311Z,0.60
2019-02-02T01:42:22.289Z,0.60
2019-02-02T01:44:52.715Z,0.60
2019-02-02T01:47:23.123Z,0.50
2019-02-02T01:49:53.100Z,0.60
2019-02-02T01:52:23.261Z,0.60
2019-02-02T01:54:53.240Z,0.70
2019-02-02T01:57:25.398Z,0.80
2019-02-02T01:59:56.016Z,0.60
2019-02-02T02:02:26.495Z,0.50
2019-02-02T02:04:56.954Z,0.50
2019-02-02T02:07:27.328Z,0.50
2019-02-02T02:09:57.390Z,0.50
2019-02-02T02:12:27.644Z,0.60
2019-02-02T02:14:57.742Z,0.50
2019-02-02T02:17:28.439Z,0.50
2019-02-02T02:19:58.761Z,0.50
2019-02-02T02:22:40.846Z,0.50
2019-02-02T02:25:04.520Z,0.50
2019-02-02T02:27:35.413Z,0.60
2019-02-02T02:30:06.727Z,0.60
2019-02-02T02:32:36.557Z,0.60
2019-02-02T02:35:06.982Z,0.70
2019-02-02T02:37:37.139Z,0.60
2019-02-02T02:40:09.062Z,0.60
2019-02-02T02:42:39.381Z,0.60
2019-02-02T02:45:20.476Z,0.70
2019-02-02T02:47:50.730Z,0.60
2019-02-02T02:50:21.724Z,0.60
2019-02-02T02:55:27.658Z,0.80
2019-02-02T02:57:58.363Z,0.70
2019-02-02T03:00:28.651Z,0.70
2019-02-02T03:02:58.927Z,0.70
2019-02-02T03:05:29.390Z,0.70
2019-02-02T03:07:59.972Z,0.70
2019-02-02T03:10:30.216Z,0.60
2019-02-02T03:13:00.699Z,0.70
2019-02-02T03:15:30.596Z,0.60
2019-02-02T03:18:01.059Z,0.60
2019-02-02T03:20:31.126Z,0.60
2019-02-02T03:23:00.683Z,0.70
2019-02-02T03:25:30.799Z,0.80
2019-02-02T03:28:00.828Z,0.90
2019-02-02T03:30:30.566Z,0.80
2019-02-02T03:33:01.211Z,0.80
2019-02-02T03:35:31.365Z,0.80
2019-02-02T03:38:01.663Z,0.80
2019-02-02T03:40:31.836Z,0.80
2019-02-02T03:43:01.896Z,0.80
2019-02-02T03:45:32.170Z,0.90
2019-02-02T03:48:02.259Z,1.00
2019-02-02T03:50:32.837Z,1.00
2019-02-02T03:53:02.958Z,1.00
2019-02-02T03:55:33.147Z,1.00
2019-02-02T03:58:03.402Z,1.00
2019-02-02T04:00:33.321Z,1.00
2019-02-02T04:03:03.721Z,1.00
2019-02-02T04:05:34.271Z,0.90
2019-02-02T04:08:04.524Z,0.90
2019-02-02T04:10:35.023Z,0.90
2019-02-02T04:13:07.653Z,0.80
2019-02-02T04:15:38.873Z,0.90
2019-02-02T04:18:09.190Z,1.00
2019-02-02T04:20:39.533Z,1.20
2019-02-02T04:23:13.850Z,1.20
2019-02-02T04:25:44.129Z,1.20
2019-02-02T04:28:14.262Z,1.20
2019-02-02T04:30:44.527Z,1.10
2019-02-02T04:33:14.797Z,1.20
2019-02-02T04:35:45.607Z,1.10
2019-02-02T04:38:15.790Z,1.00
2019-02-02T04:40:46.233Z,0.90
2019-02-02T04:43:16.507Z,1.00
2019-02-02T04:45:55.783Z,1.10
2019-02-02T04:48:28.992Z,1.10
2019-02-02T04:50:58.764Z,1.10
2019-02-02T04:53:29.007Z,1.10
2019-02-02T04:55:59.517Z,1.00
2019-02-02T04:58:29.653Z,0.90
2019-02-02T05:01:00.547Z,1.00
2019-02-02T05:03:31.461Z,0.90
2019-02-02T05:06:01.707Z,1.10
2019-02-02T05:08:32.271Z,1.00
2019-02-02T05:11:02.569Z,1.10
2019-02-02T05:13:32.998Z,1.10
2019-02-02T05:16:03.191Z,1.20
2019-02-02T05:18:33.914Z,1.20
2019-02-02T05:21:04.056Z,1.10
2019-02-02T05:23:34.026Z,1.10
2019-02-02T05:26:03.913Z,1.20
2019-02-02T05:28:34.284Z,1.30
2019-02-02T05:31:05.194Z,1.20
2019-02-02T05:33:34.987Z,1.20
2019-02-02T05:36:05.115Z,1.10
2019-02-02T05:38:35.044Z,1.10
2019-02-02T05:41:05.457Z,1.10
2019-02-02T05:43:35.648Z,1.00
2019-02-02T05:46:06.090Z,1.00
2019-02-02T05:48:36.326Z,0.90
2019-02-02T05:51:06.544Z,1.00
2019-02-02T05:53:37.264Z,1.00
2019-02-02T05:56:07.804Z,1.00
2019-02-02T05:58:46.985Z,1.00
2019-02-02T06:01:19.863Z,1.00
2019-02-02T06:03:49.973Z,1.10
2019-02-02T06:06:24.821Z,1.10
2019-02-02T06:08:54.817Z,1.10
2019-02-02T06:11:25.311Z,1.10
2019-02-02T06:14:01.227Z,1.10
2019-02-02T06:16:31.169Z,1.00
2019-02-02T06:19:01.032Z,1.00
2019-02-02T06:21:31.019Z,1.00
2019-02-02T06:24:02.347Z,1.00
2019-02-02T06:26:32.222Z,1.10
2019-02-02T06:29:02.174Z,1.10
2019-02-02T06:31:31.866Z,1.10
2019-02-02T06:34:01.483Z,1.20
2019-02-02T06:36:31.000Z,1.20
2019-02-02T06:39:00.665Z,1.30
2019-02-02T06:41:30.406Z,1.30
2019-02-02T06:44:00.069Z,1.10
2019-02-02T06:46:29.818Z,1.10
2019-02-02T06:49:01.413Z,1.10
2019-02-02T06:51:31.144Z,1.10
2019-02-02T06:54:00.588Z,1.10
2019-02-02T06:56:30.661Z,1.00
2019-02-02T06:59:00.209Z,1.10
2019-02-02T07:01:30.020Z,1.10
2019-02-02T07:03:59.725Z,1.20
2019-02-02T07:06:29.534Z,1.10
2019-02-02T07:08:59.350Z,1.30
2019-02-02T07:11:28.931Z,1.30
2019-02-02T07:13:58.860Z,1.20
2019-02-02T07:16:28.499Z,1.30
2019-02-02T07:18:58.393Z,1.30
2019-02-02T07:21:28.140Z,1.20
2019-02-02T07:23:58.021Z,1.30
2019-02-02T07:26:27.610Z,1.20
2019-02-02T07:28:57.430Z,1.20
2019-02-02T07:31:27.063Z,1.20
2019-02-02T07:33:56.635Z,1.30
2019-02-02T07:36:26.467Z,1.40
2019-02-02T07:38:56.253Z,1.40
2019-02-02T07:41:26.339Z,1.40
2019-02-02T07:43:55.750Z,1.50
2019-02-02T07:46:25.503Z,1.40
2019-02-02T07:48:55.023Z,1.40
2019-02-02T07:51:24.967Z,1.40
2019-02-02T07:53:54.661Z,1.50
2019-02-02T07:56:24.666Z,1.50
2019-02-02T07:58:54.128Z,1.50
2019-02-02T08:01:24.139Z,1.50
2019-02-02T08:03:53.637Z,1.50
2019-02-02T08:06:23.578Z,1.50
2019-02-02T08:08:53.156Z,1.60
2019-02-02T08:11:22.859Z,1.70
2019-02-02T08:13:52.506Z,1.60
2019-02-02T08:16:22.263Z,1.60
2019-02-02T08:18:51.987Z,1.60
2019-02-02T08:21:21.599Z,1.60
2019-02-02T08:23:51.204Z,1.70
2019-02-02T08:26:21.181Z,1.70
2019-02-02T08:28:50.729Z,1.60
2019-02-02T08:31:20.653Z,1.60
2019-02-02T08:33:50.575Z,1.60
2019-02-02T08:36:20.457Z,1.70
2019-02-02T08:38:50.069Z,1.60
2019-02-02T08:41:19.859Z,1.70
2019-02-02T08:43:49.477Z,1.70
2019-02-02T08:46:19.526Z,1.70
2019-02-02T08:48:49.377Z,1.60
2019-02-02T08:51:19.259Z,1.50
2019-02-02T08:53:49.255Z,1.70
2019-02-02T08:56:19.088Z,1.60
2019-02-02T08:58:48.676Z,1.70
2019-02-02T09:01:18.548Z,1.90
2019-02-02T09:03:48.073Z,1.80
2019-02-02T09:06:17.751Z,1.80
2019-02-02T09:08:47.380Z,1.80
2019-02-02T09:11:17.338Z,1.90
2019-02-02T09:13:46.655Z,1.80
2019-02-02T09:16:16.410Z,1.80
2019-02-02T09:18:46.198Z,1.90
2019-02-02T09:21:15.940Z,1.90
2019-02-02T09:23:45.475Z,2.00
2019-02-02T09:26:15.895Z,2.00
2019-02-02T09:28:45.776Z,2.10
2019-02-02T09:31:16.249Z,2.20
2019-02-02T09:33:46.169Z,2.20
2019-02-02T09:36:16.853Z,2.30
2019-02-02T09:38:47.588Z,2.30
2019-02-02T09:41:17.427Z,2.30
2019-02-02T09:43:47.288Z,2.40
2019-02-02T09:46:17.299Z,2.20
2019-02-02T09:48:46.919Z,2.20
2019-02-02T09:51:16.717Z,2.10
2019-02-02T09:53:46.323Z,2.00
2019-02-02T09:56:16.131Z,2.10
2019-02-02T09:58:45.896Z,2.10
2019-02-02T10:01:27.169Z,2.30
2019-02-02T10:03:47.218Z,2.40
2019-02-02T10:06:16.855Z,2.30
2019-02-02T10:08:46.420Z,2.50
2019-02-02T10:11:16.328Z,2.40
2019-02-02T10:13:46.376Z,2.40
2019-02-02T10:16:16.374Z,2.40
2019-02-02T10:18:46.013Z,2.40
2019-02-02T10:21:15.675Z,2.50
2019-02-02T10:23:45.654Z,2.60
2019-02-02T10:26:15.499Z,2.60
2019-02-02T10:29:05.819Z,2.70
2019-02-02T10:31:39.685Z,2.60
2019-02-02T10:34:07.048Z,2.60
2019-02-02T10:36:36.676Z,2.60
2019-02-02T10:39:09.174Z,2.60
2019-02-02T10:41:39.242Z,2.60
2019-02-02T10:44:09.184Z,2.70
2019-02-02T10:46:39.174Z,2.80
2019-02-02T10:49:09.183Z,2.80
2019-02-02T10:51:39.170Z,2.80
2019-02-02T10:54:15.258Z,2.80
2019-02-02T10:56:45.175Z,2.80
2019-02-02T10:59:15.051Z,2.80
2019-02-02T11:01:51.062Z,2.80
2019-02-02T11:04:16.187Z,2.80
2019-02-02T11:06:46.180Z,2.80
2019-02-02T11:09:16.395Z,2.90
2019-02-02T11:11:46.616Z,2.90
2019-02-02T11:14:16.982Z,2.90
2019-02-02T11:16:46.636Z,2.90
2019-02-02T11:19:16.695Z,2.90
2019-02-02T11:21:46.330Z,3.00
2019-02-02T11:24:18.951Z,2.90
2019-02-02T11:26:47.929Z,2.90
2019-02-02T11:29:17.934Z,2.80
2019-02-02T11:31:47.575Z,2.90
2019-02-02T11:34:17.326Z,2.80
2019-02-02T11:36:47.448Z,2.90
2019-02-02T11:39:17.220Z,2.80
2019-02-02T11:41:47.107Z,2.80
2019-02-02T11:44:19.821Z,2.80
2019-02-02T11:46:48.584Z,2.90
2019-02-02T11:49:18.354Z,2.80
2019-02-02T11:51:47.927Z,2.90
2019-02-02T11:54:17.469Z,2.90
2019-02-02T11:56:46.860Z,2.80
2019-02-02T11:59:16.973Z,2.90
2019-02-02T12:01:55.618Z,2.80
2019-02-02T12:04:25.516Z,2.90
2019-02-02T12:06:55.127Z,2.80
2019-02-02T12:09:25.352Z,2.70
2019-02-02T12:11:55.463Z,2.80
2019-02-02T12:14:26.712Z,2.70
2019-02-02T12:16:56.945Z,2.70
2019-02-02T12:19:27.406Z,2.70
2019-02-02T12:21:57.679Z,2.60
2019-02-02T12:24:27.529Z,2.70
2019-02-02T12:26:57.290Z,2.80
2019-02-02T12:29:27.055Z,2.70
2019-02-02T12:31:57.119Z,2.60
2019-02-02T12:34:26.965Z,2.70
2019-02-02T12:36:56.536Z,2.70
2019-02-02T12:39:26.566Z,2.60
2019-02-02T12:41:56.986Z,2.60
2019-02-02T12:44:27.050Z,2.60
2019-02-02T12:46:57.424Z,2.70
2019-02-02T12:49:27.123Z,2.60
2019-02-02T12:51:57.138Z,2.60
2019-02-02T12:54:26.649Z,2.40
2019-02-02T12:56:56.691Z,2.40
2019-02-02T12:59:26.167Z,2.30
2019-02-02T13:01:56.081Z,2.40
2019-02-02T13:04:25.964Z,2.30
2019-02-02T13:06:56.360Z,2.40
2019-02-02T13:09:26.206Z,2.30
2019-02-02T13:11:56.296Z,2.30
2019-02-02T13:14:26.252Z,2.30
2019-02-02T13:16:59.758Z,2.30
2019-02-02T13:19:28.023Z,2.30
2019-02-02T13:21:57.762Z,2.30
2019-02-02T13:24:27.848Z,2.30
2019-02-02T13:26:57.642Z,2.30
2019-02-02T13:29:27.768Z,2.20
2019-02-02T13:31:57.532Z,2.30
2019-02-02T13:34:27.650Z,2.20
2019-02-02T13:36:57.886Z,2.20
2019-02-02T13:39:27.888Z,2.30
2019-02-02T13:41:57.646Z,2.20
2019-02-02T13:44:27.461Z,2.10
2019-02-02T13:46:57.290Z,2.20
2019-02-02T13:49:26.888Z,2.20
2019-02-02T13:51:56.805Z,2.30
2019-02-02T13:54:27.015Z,2.20
2019-02-02T13:56:56.748Z,2.20
2019-02-02T13:59:26.539Z,2.10
2019-02-02T14:01:56.091Z,2.20
2019-02-02T14:04:25.841Z,2.20
2019-02-02T14:06:55.564Z,2.10
2019-02-02T14:09:25.492Z,2.10
2019-02-02T14:11:55.126Z,2.00
2019-02-02T14:14:24.698Z,2.00
2019-02-02T14:16:54.486Z,2.00
2019-02-02T14:19:24.499Z,2.00
2019-02-02T14:21:54.237Z,2.00
2019-02-02T14:24:24.224Z,1.90
2019-02-02T14:26:53.928Z,1.80
2019-02-02T14:29:23.328Z,1.70
2019-02-02T14:31:53.142Z,1.80
2019-02-02T14:34:22.962Z,1.80
2019-02-02T14:36:52.458Z,1.80
2019-02-02T14:39:22.002Z,1.90
2019-02-02T14:41:51.991Z,1.90
2019-02-02T14:44:21.686Z,1.90
2019-02-02T14:46:51.492Z,1.80
2019-02-02T14:49:21.039Z,1.80
2019-02-02T14:51:50.800Z,1.70
2019-02-02T14:54:20.319Z,1.70
2019-02-02T14:56:50.120Z,1.70
2019-02-02T14:59:20.036Z,1.70
2019-02-02T15:02:05.083Z,1.70
2019-02-02T15:04:34.811Z,1.80
2019-02-02T15:07:04.431Z,1.60
2019-02-02T15:09:34.362Z,1.60
2019-02-02T15:12:03.946Z,1.60
2019-02-02T15:14:34.054Z,1.60
2019-02-02T15:17:03.525Z,1.70
2019-02-02T15:19:33.400Z,1.70
2019-02-02T15:22:02.871Z,1.60
2019-02-02T15:24:32.561Z,1.60
2019-02-02T15:27:02.465Z,1.60
2019-02-02T15:29:32.199Z,1.70
2019-02-02T15:32:02.446Z,1.50
2019-02-02T15:34:31.923Z,1.50
2019-02-02T15:37:01.629Z,1.50
2019-02-02T15:39:31.443Z,1.50
2019-02-02T15:42:01.837Z,1.50
2019-02-02T15:44:31.860Z,1.50
2019-02-02T15:47:01.840Z,1.50
2019-02-02T15:49:31.776Z,1.50
2019-02-02T15:52:01.418Z,1.50
2019-02-02T15:54:31.225Z,1.40
2019-02-02T15:57:00.881Z,1.50
2019-02-02T15:59:30.742Z,1.50
2019-02-02T16:02:00.456Z,1.50
2019-02-02T16:04:30.719Z,1.50
2019-02-02T16:07:01.293Z,1.30
2019-02-02T16:09:31.425Z,1.30
2019-02-02T16:12:01.740Z,1.30
2019-02-02T16:14:32.082Z,1.40
2019-02-02T16:17:02.200Z,1.40
2019-02-02T16:19:32.446Z,1.40
2019-02-02T16:22:02.705Z,1.40
2019-02-02T16:24:33.150Z,1.30
2019-02-02T16:27:03.277Z,1.40
2019-02-02T16:29:33.282Z,1.30
2019-02-02T16:32:03.335Z,1.40
2019-02-02T16:34:33.281Z,1.30
2019-02-02T16:37:03.515Z,1.30
2019-02-02T16:39:34.118Z,1.30
2019-02-02T16:42:04.001Z,1.30
2019-02-02T16:44:33.996Z,1.30
2019-02-02T16:47:04.716Z,1.10
2019-02-02T16:49:35.008Z,1.30
2019-02-02T16:52:05.163Z,1.30
2019-02-02T16:54:35.195Z,1.40
2019-02-02T16:57:05.444Z,1.30
2019-02-02T16:59:36.122Z,1.20
2019-02-02T17:02:07.969Z,1.20
2019-02-02T17:04:37.909Z,1.30
2019-02-02T17:07:07.982Z,1.30
2019-02-02T17:09:37.901Z,1.30
2019-02-02T17:12:08.765Z,1.30
2019-02-02T17:14:39.058Z,1.20
2019-02-02T17:17:09.286Z,1.30
2019-02-02T17:19:39.522Z,1.30
2019-02-02T17:22:09.718Z,1.40
2019-02-02T17:24:39.759Z,1.40
2019-02-02T17:27:09.755Z,1.30
2019-02-02T17:29:39.911Z,1.30
2019-02-02T17:32:10.353Z,1.30
2019-02-02T17:34:40.847Z,1.30
2019-02-02T17:37:10.978Z,1.30
2019-02-02T17:39:41.483Z,1.30
2019-02-02T17:42:11.457Z,1.30
2019-02-02T17:44:41.530Z,1.40
2019-02-02T17:47:11.643Z,1.40
2019-02-02T17:49:41.672Z,1.30
2019-02-02T17:52:11.778Z,1.30
2019-02-02T17:54:42.191Z,1.30
2019-02-02T17:57:12.649Z,1.30
2019-02-02T17:59:42.845Z,1.40
2019-02-02T18:02:13.264Z,1.40
2019-02-02T18:04:43.412Z,1.30
2019-02-02T18:07:13.713Z,1.30
2019-02-02T18:09:47.106Z,1.40
2019-02-02T18:12:18.067Z,1.50
2019-02-02T18:14:48.186Z,1.50
2019-02-02T18:17:18.536Z,1.50
2019-02-02T18:19:48.512Z,1.40
2019-02-02T18:22:18.640Z,1.30
2019-02-02T18:24:48.919Z,1.20
2019-02-02T18:27:19.364Z,1.30
2019-02-02T18:29:49.840Z,1.30
2019-02-02T18:32:19.417Z,1.30
2019-02-02T18:34:51.250Z,1.30
2019-02-02T18:37:21.288Z,1.30
2019-02-02T18:39:52.237Z,1.40
2019-02-02T18:42:22.589Z,1.40
2019-02-02T18:44:52.733Z,1.40
2019-02-02T18:47:22.845Z,1.40
2019-02-02T18:49:52.947Z,1.30
2019-02-02T18:52:23.274Z,1.40
2019-02-02T18:54:53.663Z,1.40
2019-02-02T18:57:23.784Z,1.40
2019-02-02T18:59:54.034Z,1.40
2019-02-02T19:02:24.151Z,1.40
2019-02-02T19:05:03.275Z,1.40
2019-02-02T19:07:26.196Z,1.50
2019-02-02T19:09:56.351Z,1.40
2019-02-02T19:12:26.549Z,1.50
2019-02-02T19:14:57.153Z,1.40
2019-02-02T19:17:27.447Z,1.40
2019-02-02T19:19:57.872Z,1.40
2019-02-02T19:22:28.228Z,1.40
2019-02-02T19:24:58.621Z,1.40
2019-02-02T19:27:28.634Z,1.50
2019-02-02T19:29:58.655Z,1.50
2019-02-02T19:32:28.606Z,1.50
2019-02-02T19:34:58.404Z,1.40
2019-02-02T19:37:28.306Z,1.50
2019-02-02T19:39:57.916Z,1.50
2019-02-02T19:42:27.693Z,1.40
2019-02-02T19:44:58.041Z,1.40
2019-02-02T19:47:28.467Z,1.40
2019-02-02T19:49:58.472Z,1.40
2019-02-02T19:52:28.257Z,1.40
2019-02-02T19:54:58.295Z,1.50
2019-02-02T19:57:28.712Z,1.50
2019-02-02T19:59:58.834Z,1.40
2019-02-02T20:02:28.842Z,1.40
2019-02-02T20:04:58.719Z,1.40
2019-02-02T20:07:30.519Z,1.40
2019-02-02T20:10:00.412Z,1.30
2019-02-02T20:12:30.608Z,1.40
2019-02-02T20:15:00.868Z,1.40
2019-02-02T20:17:30.988Z,1.40
2019-02-02T20:20:01.119Z,1.50
2019-02-02T20:22:32.051Z,1.50
2019-02-02T20:25:02.432Z,1.50
2019-02-02T20:27:32.909Z,1.50
2019-02-02T20:30:17.668Z,1.40
2019-02-02T20:32:47.666Z,1.40
2019-02-02T20:35:17.665Z,1.40
2019-02-02T20:37:47.922Z,1.30
2019-02-02T20:40:19.958Z,1.40
2019-02-02T20:42:50.431Z,1.30
2019-02-02T20:45:22.845Z,1.30
2019-02-02T20:47:53.196Z,1.30
2019-02-02T20:50:23.100Z,1.40
2019-02-02T20:52:53.907Z,1.40
2019-02-02T20:55:29.202Z,1.50
2019-02-02T20:57:59.922Z,1.40
2019-02-02T21:00:30.354Z,1.50
2019-02-02T21:03:01.134Z,1.60
2019-02-02T21:05:32.144Z,1.40
2019-02-02T21:08:02.446Z,1.40
2019-02-02T21:10:32.818Z,1.40
2019-02-02T21:13:03.146Z,1.50
2019-02-02T21:15:33.354Z,1.50
2019-02-02T21:18:03.645Z,1.50
2019-02-02T21:20:34.346Z,1.40
2019-02-02T21:23:05.380Z,1.40
2019-02-02T21:25:35.706Z,1.50
2019-02-02T21:28:06.274Z,1.50
2019-02-02T21:30:36.813Z,1.50
2019-02-02T21:33:07.277Z,1.50
2019-02-02T21:35:37.764Z,1.40
2019-02-02T21:38:07.949Z,1.40
2019-02-02T21:40:37.827Z,1.40
2019-02-02T21:43:09.411Z,1.30
2019-02-02T21:45:40.107Z,1.30
2019-02-02T21:48:10.548Z,1.40
2019-02-02T21:50:42.183Z,1.30
2019-02-02T21:53:12.394Z,1.30
2019-02-02T21:55:42.253Z,1.40
2019-02-02T21:58:13.246Z,1.40
2019-02-02T22:00:44.549Z,1.40
2019-02-02T22:03:15.155Z,1.40
2019-02-02T22:05:45.198Z,1.40
2019-02-02T22:08:15.887Z,1.40
2019-02-02T22:10:46.586Z,1.30
2019-02-02T22:13:16.928Z,1.40
2019-02-02T22:15:47.591Z,1.30
2019-02-02T22:18:18.178Z,1.40
2019-02-02T22:20:48.639Z,1.50
2019-02-02T22:23:19.382Z,1.50
2019-02-02T22:25:49.593Z,1.50
2019-02-02T22:28:20.222Z,1.60
2019-02-02T22:30:51.265Z,1.60
2019-02-02T22:33:22.108Z,1.50
2019-02-02T22:35:52.513Z,1.70
2019-02-02T22:38:22.831Z,1.70
2019-02-02T22:40:53.427Z,1.60
2019-02-02T22:43:23.944Z,1.80
2019-02-02T22:45:54.317Z,1.70
2019-02-02T22:48:24.535Z,1.70
2019-02-02T22:50:54.751Z,1.50
2019-02-02T22:53:25.119Z,1.50
2019-02-02T22:55:55.282Z,1.60
2019-02-02T22:58:26.032Z,1.70
2019-02-02T23:01:27.414Z,1.50
2019-02-02T23:04:06.919Z,1.50
2019-02-02T23:07:16.374Z,1.50
2019-02-02T23:10:31.334Z,1.40
2019-02-02T23:13:14.713Z,1.50
2019-02-02T23:16:24.205Z,1.50
2019-02-02T23:18:55.229Z,1.50
2019-02-02T23:21:26.069Z,1.50
2019-02-02T23:23:56.968Z,1.50
2019-02-02T23:26:27.395Z,1.50
2019-02-02T23:28:57.795Z,1.60
2019-02-02T23:31:27.872Z,1.60
2019-02-02T23:33:58.161Z,1.50
2019-02-02T23:36:28.404Z,1.50
2019-02-02T23:38:58.592Z,1.50
2019-02-02T23:41:28.473Z,1.40
2019-02-02T23:43:58.707Z,1.50
2019-02-02T23:46:28.981Z,1.50
2019-02-02T23:48:58.879Z,1.40
2019-02-02T23:51:29.213Z,1.40
2019-02-02T23:53:59.136Z,1.40
2019-02-02T23:56:30.079Z,1.40
2019-02-02T23:59:00.025Z,1.50
